Terminal Aerodrome Forecast
Issued by NWS Goodland, KS

Home | Current Version | Previous Version | Text Only | Print | Product List | Glossary On
Versions: 1 2 3 4 5 6 7 8 9 10 11 12 13 14 15 16 17 18 19 20
000
FTUS43 KGLD 042320
TAFGLD
TAF
KGLD 042320Z 0500/0524 16017G23KT P6SM FEW080 SCT250
     FM050400 17014KT P6SM SCT250
     FM051000 18009KT P6SM FEW250
     FM051600 18015G22KT P6SM FEW250
     FM052100 19023G32KT P6SM FEW100 SCT250=

USA.gov is the U.S. government's official web portal to all federal, state and local government web resources and services.